Latest Weather Observations for Essendon Airport

IDV60901

Issued at 12:51 am EST Thursday 18 July 2019 (issued every 10 minutes, with the page automatically refreshed every 10 minutes)

About weather observations | Map of Melbourne area stations | Latest observations for Melbourne area | Other Formats
Station Details ID: 086038 Name: ESSENDON AIRPORT Lat: -37.73 Lon: 144.91 Height: 78.4 m
Data from the previous 72 hours. | See also: Recent months at Essendon Airport
Date/Time
EST
Temp
°C
App
Temp
°C
Dew
Point
°C
Rel
Hum
%
Delta-T
°C
Wind Press
QNH
hPa
Press
MSL
hPa
Rain since
9am
mm
Dir  Spd
km/h
Gust
km/h
Spd
kts
Gust
kts
18/12:30am 9.6 6.3 6.5 81 1.4 WNW 13 17 7 9 1016.6 1016.7 0.8
18/12:00am 9.7 6.8 6.6 81 1.4 NW 11 17 6 9 1016.6 1016.7 0.8
 
Date/Time
EST
Temp
°C
App
Temp
°C
Dew
Point
°C
Rel
Hum
%
Delta-T
°C
Wind Press
QNH
hPa
Press
MSL
hPa
Rain since
9am
mm
Dir  Spd
km/h
Gust
km/h
Spd
kts
Gust
kts
17/11:30pm 9.5 6.7 6.8 83 1.3 WNW 11 13 6 7 1016.6 1016.7 0.8
17/11:00pm 9.4 6.5 6.5 82 1.3 WNW 11 15 6 8 1016.5 1016.6 0.8
17/10:30pm 9.5 5.9 6.9 84 1.2 WSW 15 20 8 11 1016.5 1016.6 0.8
17/10:00pm 10.3 6.6 8.1 86 1.1 W 17 24 9 13 1016.6 1016.7 0.8
17/09:30pm 10.2 6.6 8.3 88 0.9 WNW 17 28 9 15 1016.4 1016.5 0.8
17/09:00pm 9.8 7.8 8.6 92 0.6 WNW 9 13 5 7 1016.0 1016.1 0.8
17/08:30pm 9.7 6.5 8.5 92 0.6 W 15 19 8 10 1015.6 1015.7 0.8
17/08:00pm 10.7 6.8 8.8 88 0.9 W 19 26 10 14 1015.4 1015.5 0.8
17/07:30pm 11.3 7.7 8.2 81 1.5 W 17 22 9 12 1015.0 1015.2 0.8
17/07:00pm 11.4 7.3 7.9 79 1.7 W 19 24 10 13 1014.5 1014.7 0.8
17/06:30pm 11.5 6.8 7.6 77 1.9 W 22 28 12 15 1014.1 1014.3 0.8
17/06:00pm 11.7 6.7 8.0 78 1.8 W 24 35 13 19 1013.8 1014.0 0.6
17/05:30pm 11.8 6.7 7.5 75 2.1 W 24 37 13 20 1013.3 1013.5 0.6
17/05:00pm 11.5 6.0 7.6 77 1.9 W 26 41 14 22 1013.1 1013.3 0.6
17/04:47pm 12.3 6.3 7.0 70 2.6 W 28 48 15 26 1013.3 1013.5 0.6
17/04:30pm 12.0 7.7 7.1 72 2.4 WNW 19 33 10 18 1013.5 1013.7 0.6
17/04:00pm 12.4 6.4 7.1 70 2.6 W 28 39 15 21 1013.2 1013.4 0.6
17/03:30pm 12.2 8.0 8.1 76 2.0 WNW 20 28 11 15 1013.1 1013.3 0.6
17/03:00pm 11.6 8.2 9.3 86 1.2 WNW 17 26 9 14 1013.4 1013.6 0.6
17/02:45pm 10.9 6.3 9.5 91 0.7 WNW 24 37 13 20 1013.5 1013.7 0.6
17/02:30pm 11.5 8.0 10.1 91 0.7 WSW 19 28 10 15 1013.5 1013.7 0.6
17/02:26pm 11.6 8.8 10.0 90 0.8 W 15 22 8 12 1013.5 1013.7 0.6
17/02:00pm 11.5 9.1 10.2 92 0.7 WNW 13 19 7 10 1013.5 1013.7 0.4
17/01:42pm 11.1 7.6 10.2 94 0.5 W 19 22 10 12 1013.9 1014.1 0.4
17/01:30pm 11.1 7.4 10.2 94 0.5 WSW 20 24 11 13 1014.1 1014.3 0.4
17/01:20pm 11.2 7.3 9.6 90 0.8 WSW 20 26 11 14 1014.2 1014.4 0.2
17/01:00pm 12.8 9.2 8.3 74 2.2 NW 17 26 9 14 1014.2 1014.4 0.0
17/12:30pm 12.0 9.1 8.1 77 1.9 NNW 13 20 7 11 1014.7 1014.9 0.0
17/12:00pm 11.6 7.4 8.1 79 1.7 NNW 20 28 11 15 1015.5 1015.6 0.0
17/11:30am 10.7 5.9 7.4 80 1.6 NNW 22 30 12 16 1016.1 1016.2 0.0
17/11:00am 10.6 6.3 7.1 79 1.7 NNW 19 26 10 14 1016.6 1016.7 0.0
17/10:30am 10.4 5.9 6.9 79 1.7 NNW 20 30 11 16 1017.0 1017.1 0.0
17/10:00am 10.9 6.4 6.8 76 1.9 NNW 20 32 11 17 1017.3 1017.4 0.0
17/09:30am 10.9 6.3 6.6 75 2.0 NNW 20 32 11 17 1017.6 1017.7 0.0
17/09:00am 10.5 6.9 6.8 78 1.7 NNW 15 22 8 12 1017.8 1017.9 0.0
17/08:30am 10.1 7.5 6.3 77 1.8 N 9 13 5 7 1017.8 1017.9 0.0
17/08:00am 9.7 6.7 6.1 78 1.7 NNW 11 15 6 8 1018.0 1018.1 0.0
17/07:30am 9.5 6.5 6.0 79 1.6 NNW 11 13 6 7 1018.1 1018.2 0.0
17/07:00am 10.0 6.7 6.2 77 1.8 NW 13 20 7 11 1018.3 1018.4 0.0
17/06:30am 10.2 5.7 6.0 75 1.9 WNW 19 26 10 14 1018.5 1018.6 0.0
17/06:00am 10.2 6.4 5.6 73 2.1 WNW 15 24 8 13 1018.6 1018.7 0.0
17/05:30am 9.8 5.7 6.2 78 1.7 WNW 17 26 9 14 1018.8 1018.9 0.0
17/05:00am 9.3 8.6 6.9 85 1.1 CALM 0 6 0 3 1018.6 1018.7 0.0
17/04:30am 9.3 8.7 7.3 87 0.9 CALM 0 6 0 3 1019.0 1019.1 0.0
17/04:00am 9.9 7.5 7.0 82 1.4 W 9 11 5 6 1019.2 1019.3 0.0
17/03:30am 9.7 7.7 7.0 83 1.3 WSW 7 9 4 5 1019.9 1020.0 0.0
17/03:00am 9.6 8.5 6.9 83 1.3 WSW 2 7 1 4 1020.3 1020.4 0.0
17/02:30am 10.0 8.9 6.7 80 1.6 WSW 2 7 1 4 1020.6 1020.7 0.0
17/02:00am 10.2 7.3 6.7 79 1.6 WSW 11 17 6 9 1021.0 1021.1 0.0
17/01:30am 10.4 6.0 6.4 76 1.9 WSW 19 24 10 13 1021.1 1021.2 0.0
17/01:00am 10.6 6.7 6.9 78 1.8 WNW 17 22 9 12 1021.1 1021.2 0.0
17/12:30am 10.4 7.4 7.5 82 1.4 NW 13 17 7 9 1021.3 1021.4 0.0
17/12:00am 10.4 7.0 7.6 83 1.3 NW 15 20 8 11 1021.4 1021.5 0.0
 
Date/Time
EST
Temp
°C
App
Temp
°C
Dew
Point
°C
Rel
Hum
%
Delta-T
°C
Wind Press
QNH
hPa
Press
MSL
hPa
Rain since
9am
mm
Dir  Spd
km/h
Gust
km/h
Spd
kts
Gust
kts
16/11:30pm 10.7 6.6 7.9 83 1.4 NW 19 26 10 14 1021.6 1021.7 0.0
16/11:00pm 11.0 7.7 7.9 81 1.5 WNW 15 22 8 12 1022.0 1022.1 0.0
16/10:30pm 10.9 8.7 8.0 82 1.4 WNW 9 13 5 7 1022.1 1022.2 0.0
16/10:00pm 10.9 8.0 8.1 83 1.4 NW 13 19 7 10 1022.3 1022.4 0.0
16/09:30pm 10.8 6.9 8.6 86 1.1 W 19 26 10 14 1022.4 1022.6 0.0
16/09:00pm 10.6 7.5 8.9 89 0.8 W 15 17 8 9 1022.5 1022.7 0.0
16/08:30pm 10.8 7.7 8.7 87 1.0 W 15 20 8 11 1022.6 1022.8 0.0
16/08:00pm 11.0 7.5 8.9 87 1.0 WSW 17 24 9 13 1022.7 1022.9 0.0
16/07:30pm 10.8 7.4 9.2 90 0.8 WSW 17 20 9 11 1022.6 1022.8 0.0
16/07:00pm 11.4 7.4 9.1 86 1.1 W 20 26 11 14 1022.5 1022.7 0.0
16/06:30pm 11.6 8.5 9.0 84 1.3 W 15 19 8 10 1022.3 1022.4 0.0
16/06:00pm 11.6 7.6 9.0 84 1.3 WSW 20 28 11 15 1022.0 1022.1 0.0
16/05:30pm 12.1 7.7 8.9 81 1.6 W 22 30 12 16 1022.0 1022.1 0.0
16/05:00pm 12.4 8.4 8.9 79 1.8 WSW 20 30 11 16 1021.9 1022.0 0.0
16/04:30pm 12.7 7.1 8.8 77 2.0 WSW 28 37 15 20 1021.8 1021.9 0.0
16/04:00pm 12.6 7.9 9.4 81 1.6 WSW 24 33 13 18 1021.8 1021.9 0.0
16/03:30pm 13.3 9.7 9.9 80 1.8 W 19 24 10 13 1021.8 1021.9 0.0
16/03:00pm 12.5 7.9 9.5 82 1.5 WSW 24 33 13 18 1022.0 1022.1 0.0
16/02:30pm 12.2 7.0 10.4 89 0.9 WSW 28 46 15 25 1022.1 1022.2 0.0
16/02:23pm 12.3 7.1 10.4 88 1.0 WSW 28 46 15 25 1022.0 1022.1 0.0
16/02:00pm 12.9 6.6 9.0 77 2.0 WSW 32 43 17 23 1021.7 1021.8 0.0
16/01:30pm 13.0 7.1 9.1 77 2.0 WSW 30 39 16 21 1022.0 1022.1 0.0
16/01:00pm 12.6 6.7 8.9 78 1.9 WSW 30 37 16 20 1022.2 1022.3 0.0
16/12:30pm 12.4 5.9 9.1 80 1.7 WSW 33 46 18 25 1022.5 1022.7 0.0
16/12:00pm 12.4 6.7 8.5 77 1.9 WSW 28 41 15 22 1022.9 1023.1 0.0
16/11:30am 12.5 7.5 9.5 82 1.5 WSW 26 35 14 19 1023.2 1023.4 0.0
16/11:00am 11.9 6.7 8.9 82 1.5 WSW 26 39 14 21 1023.3 1023.5 0.0
16/10:44am 11.6 6.5 9.3 86 1.2 WSW 26 33 14 18 1023.4 1023.6 0.0
16/10:30am 11.2 6.9 9.3 88 1.0 WSW 22 30 12 16 1023.5 1023.7 0.0
16/10:12am 10.9 7.0 9.3 90 0.8 WSW 20 24 11 13 1023.7 1023.9 0.0
16/10:00am 10.7 6.3 9.1 90 0.8 WSW 22 32 12 17 1023.6 1023.8 0.0
16/09:49am 10.6 6.2 9.0 90 0.8 WSW 22 30 12 16 1023.5 1023.7 0.0
16/09:30am 10.4 6.7 9.3 93 0.5 WSW 19 26 10 14 1023.5 1023.7 0.0
16/09:26am 10.4 6.7 9.3 93 0.5 WSW 19 26 10 14 1023.4 1023.6 0.0
16/09:05am 10.4 6.5 9.6 95 0.4 WSW 20 30 11 16 1023.3 1023.5 0.0
16/09:00am 10.4 7.2 9.8 96 0.3 WSW 17 24 9 13 1023.4 1023.6 3.8
16/08:31am 10.1 5.9 9.8 98 0.2 SW 22 32 12 17 1023.1 1023.3 3.8
16/08:30am 10.1 6.3 9.8 98 0.2 SW 20 32 11 17 1023.1 1023.3 3.8
16/08:00am 10.2 8.6 10.1 99 0.1 W 9 11 5 6 1022.9 1023.1 3.2
16/07:40am 10.1 8.4 10.0 99 0.1 W 9 13 5 7 1022.5 1022.7 3.0
16/07:38am 10.1 8.4 10.0 99 0.1 W 9 13 5 7 1022.5 1022.7 3.0
16/07:30am 10.1 8.1 10.0 99 0.1 W 11 15 6 8 1022.5 1022.7 3.0
16/07:00am 10.1 8.4 10.0 99 0.1 W 9 13 5 7 1022.3 1022.4 2.8
16/06:30am 10.1 8.1 10.0 99 0.1 WSW 11 15 6 8 1022.3 1022.4 2.2
16/06:08am 10.2 8.6 10.1 99 0.1 WSW 9 13 5 7 1022.2 1022.3 1.8
16/06:02am 10.2 8.9 10.1 99 0.1 WSW 7 9 4 5 1022.2 1022.3 1.8
16/06:00am 10.1 8.8 10.0 99 0.1 WSW 7 9 4 5 1022.1 1022.2 1.8
16/05:45am 10.2 8.5 9.9 98 0.2 WSW 9 9 5 5 1022.1 1022.2 1.6
16/05:37am 10.2 8.1 9.9 98 0.2 WSW 11 15 6 8 1022.0 1022.1 1.6
16/05:30am 10.2 8.1 9.9 98 0.2 WSW 11 15 6 8 1022.0 1022.1 1.6
16/05:00am 10.2 7.3 9.7 97 0.3 W 15 20 8 11 1021.9 1022.0 1.6
16/04:49am 10.3 7.8 9.8 97 0.3 W 13 17 7 9 1021.9 1022.0 1.6
16/04:36am 10.3 7.8 9.8 97 0.3 WSW 13 17 7 9 1021.9 1022.0 1.6
16/04:32am 10.3 7.4 9.8 97 0.3 WSW 15 19 8 10 1022.0 1022.1 1.6
16/04:30am 10.3 7.4 9.7 96 0.3 WSW 15 20 8 11 1022.0 1022.1 1.6
16/04:00am 10.2 7.4 9.9 98 0.2 W 15 20 8 11 1022.3 1022.4 1.6
16/03:45am 10.3 7.9 10.0 98 0.2 W 13 19 7 10 1022.4 1022.6 1.6
16/03:31am 10.3 7.9 10.1 99 0.1 WSW 13 17 7 9 1022.4 1022.6 1.6
16/03:30am 10.3 7.9 10.1 99 0.1 WSW 13 17 7 9 1022.4 1022.6 1.6
16/03:14am 10.3 7.9 10.1 99 0.1 WSW 13 17 7 9 1022.3 1022.4 1.4
16/03:00am 10.4 7.6 10.1 98 0.2 WSW 15 20 8 11 1022.3 1022.4 1.4
16/02:30am 10.4 7.2 9.9 97 0.3 WSW 17 20 9 11 1022.7 1022.9 1.0
16/02:01am 10.5 7.6 9.7 95 0.4 WSW 15 19 8 10 1022.7 1022.9 0.8
16/02:00am 10.6 7.7 9.8 95 0.4 WSW 15 19 8 10 1022.7 1022.9 0.8
16/01:44am 10.7 8.2 9.6 93 0.6 WSW 13 19 7 10 1022.7 1022.9 0.6
16/01:30am 10.7 7.4 9.5 92 0.6 WSW 17 22 9 12 1022.8 1023.0 0.6
16/01:00am 10.5 8.1 9.9 96 0.3 WSW 13 20 7 11 1022.9 1023.1 0.6
16/12:59am 10.5 8.1 9.9 96 0.3 WSW 13 20 7 11 1022.9 1023.1 0.6
16/12:55am 10.5 7.7 9.9 96 0.3 WSW 15 22 8 12 1022.9 1023.1 0.6
16/12:30am 10.9 6.4 10.1 95 0.4 WSW 24 35 13 19 1023.1 1023.3 0.6
16/12:26am 10.9 6.8 10.0 94 0.5 WSW 22 35 12 19 1023.1 1023.3 0.4
16/12:09am 11.0 7.8 9.9 93 0.6 SW 17 22 9 12 1023.1 1023.3 0.4
16/12:00am 11.0 7.2 9.9 93 0.6 SW 20 33 11 18 1023.1 1023.3 0.4
 
Date/Time
EST
Temp
°C
App
Temp
°C
Dew
Point
°C
Rel
Hum
%
Delta-T
°C
Wind Press
QNH
hPa
Press
MSL
hPa
Rain since
9am
mm
Dir  Spd
km/h
Gust
km/h
Spd
kts
Gust
kts
15/11:37pm 11.1 7.4 10.0 93 0.6 WSW 20 28 11 15 1023.0 1023.2 0.4
15/11:30pm 11.2 7.1 10.1 93 0.6 WSW 22 32 12 17 1023.0 1023.2 0.4
15/11:17pm 11.4 7.3 10.1 92 0.7 WSW 22 32 12 17 1023.1 1023.3 0.4
15/11:16pm 11.5 7.4 10.1 91 0.7 WSW 22 32 12 17 1023.1 1023.3 0.4
15/11:00pm 11.5 7.3 9.9 90 0.8 WSW 22 28 12 15 1023.1 1023.3 0.4
15/10:30pm 11.4 7.7 10.3 93 0.6 WSW 20 28 11 15 1023.1 1023.3 0.4
15/10:21pm 11.3 8.2 10.4 94 0.5 WSW 17 22 9 12 1023.1 1023.3 0.4
15/10:06pm 11.3 7.9 10.7 96 0.3 WSW 19 24 10 13 1023.3 1023.5 0.4
15/10:00pm 11.4 7.8 10.6 95 0.4 WSW 20 26 11 14 1023.3 1023.5 0.4
15/09:45pm 11.6 7.2 10.5 93 0.6 SW 24 33 13 18 1023.3 1023.5 0.2
15/09:43pm 11.6 7.2 10.5 93 0.6 SW 24 33 13 18 1023.3 1023.5 0.2
15/09:30pm 11.7 8.2 10.1 90 0.8 SW 19 24 10 13 1023.2 1023.4 0.2
15/09:26pm 11.7 8.2 10.1 90 0.8 SW 19 24 10 13 1023.2 1023.4 0.2
15/09:21pm 11.6 7.9 10.2 91 0.7 WSW 20 28 11 15 1023.3 1023.5 0.2
15/09:05pm 11.7 8.0 10.3 91 0.7 WSW 20 30 11 16 1023.5 1023.7 0.2
15/09:03pm 11.7 8.0 10.3 91 0.7 WSW 20 30 11 16 1023.4 1023.6 0.2
15/09:00pm 11.7 8.2 10.3 91 0.7 WSW 19 26 10 14 1023.5 1023.7 0.0
15/08:55pm 11.7 8.0 10.3 91 0.7 SW 20 28 11 15 1023.4 1023.6 0.0
15/08:44pm 12.0 7.2 10.2 89 0.9 WSW 26 35 14 19 1023.3 1023.5 0.0
15/08:30pm 12.6 6.8 9.6 82 1.5 WSW 30 43 16 23 1023.3 1023.5 0.0
15/08:00pm 12.4 7.8 9.6 83 1.4 WSW 24 32 13 17 1023.1 1023.3 0.0
15/07:30pm 12.7 7.7 9.7 82 1.5 WSW 26 41 14 22 1022.9 1023.1 0.0
15/07:00pm 12.7 8.1 9.7 82 1.5 WSW 24 30 13 16 1022.5 1022.7 0.0
15/06:30pm 12.9 7.9 9.7 81 1.6 WSW 26 35 14 19 1022.5 1022.7 0.0
15/06:00pm 13.1 8.1 9.5 79 1.8 WSW 26 33 14 18 1022.3 1022.4 0.0
15/05:30pm 13.2 9.9 9.5 78 1.9 W 17 22 9 12 1021.9 1022.0 0.0
15/05:00pm 13.3 9.4 9.5 78 1.9 W 20 28 11 15 1021.7 1021.8 0.0
15/04:30pm 13.2 8.6 9.5 78 1.9 WSW 24 33 13 18 1021.7 1021.8 0.0
15/04:00pm 13.4 8.8 9.6 78 1.9 WSW 24 33 13 18 1021.6 1021.7 0.0
15/03:30pm 13.2 8.5 9.1 76 2.1 WSW 24 35 13 19 1021.4 1021.5 0.0
15/03:00pm 13.1 6.8 8.8 75 2.2 WSW 32 44 17 24 1021.3 1021.4 0.0
15/02:30pm 13.3 7.8 9.0 75 2.2 WSW 28 35 15 19 1021.1 1021.2 0.0
15/02:00pm 12.6 7.0 8.7 77 1.9 WSW 28 39 15 21 1021.5 1021.6 0.0
15/01:30pm 12.2 6.1 8.3 77 1.9 WSW 30 39 16 21 1021.8 1021.9 0.0
15/01:00pm 12.6 6.7 7.7 72 2.4 SW 28 35 15 19 1021.9 1022.0 0.0
15/12:30pm 12.3 5.7 7.6 73 2.3 WSW 32 39 17 21 1022.1 1022.2 0.0
15/12:00pm 12.1 6.2 7.4 73 2.3 WSW 28 35 15 19 1022.5 1022.7 0.0
15/11:30am 12.5 7.5 8.0 74 2.2 SW 24 32 13 17 1022.4 1022.6 0.0
15/11:00am 11.6 6.7 8.3 80 1.6 WSW 24 35 13 19 1022.9 1023.1 0.0
15/10:30am 11.4 7.3 7.9 79 1.7 SW 19 30 10 16 1022.9 1023.1 0.0
15/10:00am 9.9 5.5 7.5 85 1.1 WSW 20 26 11 14 1023.0 1023.2 0.0
15/09:30am 9.5 5.1 7.3 86 1.0 SW 20 26 11 14 1022.7 1022.9 0.0
15/09:00am 9.0 3.9 7.5 90 0.7 WSW 24 30 13 16 1022.3 1022.4 1.0
15/08:30am 8.5 5.0 7.4 93 0.5 WSW 15 26 8 14 1022.0 1022.1 1.0
15/08:00am 8.4 4.2 7.3 93 0.5 WSW 19 26 10 14 1021.8 1021.9 1.0
15/07:30am 8.1 3.8 6.9 92 0.6 WSW 19 24 10 13 1021.3 1021.4 1.0
15/07:00am 7.9 4.3 6.7 92 0.6 WSW 15 20 8 11 1020.7 1020.8 1.0
15/06:30am 8.4 4.1 7.0 91 0.7 SW 19 24 10 13 1020.1 1020.2 1.0
15/06:00am 8.2 3.7 6.8 91 0.6 WSW 20 26 11 14 1019.6 1019.7 1.0
15/05:30am 8.4 4.0 7.2 92 0.6 WSW 20 26 11 14 1019.3 1019.4 1.0
15/05:00am 8.5 4.3 7.3 92 0.6 WSW 19 24 10 13 1018.9 1019.0 0.8
15/04:30am 8.4 3.2 7.2 92 0.6 WSW 24 32 13 17 1018.5 1018.6 0.8
15/04:00am 8.8 3.6 7.4 91 0.7 SW 24 32 13 17 1018.5 1018.6 0.8
15/03:30am 8.8 3.6 7.1 89 0.8 WSW 24 33 13 18 1018.2 1018.3 0.8
15/03:00am 9.2 3.6 7.0 86 1.0 WSW 26 32 14 17 1018.0 1018.1 0.6
15/02:30am 9.4 3.7 6.7 83 1.3 WSW 26 35 14 19 1017.9 1018.0 0.6
15/02:00am 9.6 3.6 7.0 84 1.2 SW 28 37 15 20 1017.8 1017.9 0.6
15/01:30am 9.5 3.2 7.4 87 1.0 WSW 30 41 16 22 1017.0 1017.1 0.6
15/01:00am 9.5 4.0 7.4 87 1.0 WSW 26 33 14 18 1016.7 1016.8 0.6

Latest Capital City Observations: Canberra | Sydney | Melbourne | Brisbane | Adelaide | Perth | Hobart | Darwin

Other formats

Comma delimited format used in spreadsheet applications
http://www.bom.gov.au/fwo/IDV60901/IDV60901.95866.axf

JavaScript Object Notation format (JSON) in row-major order
http://www.bom.gov.au/fwo/IDV60901/IDV60901.95866.json

Data quality

Most of these data are generated automatically and are frequently updated. Quality checks on data are not normally performed. It is possible for incorrect values to appear. Refer to information at About Latest Weather Observations and please check the disclaimer before using these data.